Kolobrzeg, Poland

9:04 AM CEST on April 21, 2015 (GMT +0200)
Wybrzeże | | Change Station
CLOSE
Current Station
Personal Weather Station
Location: Niekłonice, WOJEWóDZTWO ZACHODNIOPOMORSKIE
Elevation: 118 ft
Nearby Weather Stations

Elev 118 ft 54.16 °N, 16.15 °E | Updated 5 seconds ago

Clear
Clear
49.1 °F
Feels Like 43 °F
N
16.6
Wind Variable Wind from WNW
Gusts 19.9 mph

Today
High -- | Low -- °F
--% Chance of Precip.
Yesterday
High -- | Low -- °F
Precip. -- in
5:43 AM 8:10 PM
Waxing Crescent, 8% visible
Pressure 30.18 in
Visibility -9999.0 miles
Clouds
Windchill 43 °F
Dew Point 37 °F
Humidity 64%
Rainfall 0.00 in
Snow Depth Not available.
UV 3.0 out of 12
Pollen Not available.
Air Quality Not available.
Flu Activity Not available.
METAR EDAH 210650Z 31008KT 250V360 CAVOK 12/02 Q1022

More Conditions Fewer Conditions

Pressure 30.18 in
Visibility -9999.0 miles
Clouds
Windchill 43 °F
Dew Point 37 °F
Humidity 64%
Rainfall 0.00 in
Snow Depth Not available.
UV 3.0 out of 12
Pollen Not available.
Air Quality Not available.
Flu Activity Not available.
METAR EDAH 210650Z 31008KT 250V360 CAVOK 12/02 Q1022

More Conditions Fewer Conditions

10-Day Weather Forecast

Almanac

Astronomy

Apr. 21, 2015 Rise Set
Actual Time
Civil Twilight
Nautical Twilight
Astronomical Twilight
Moon
Length of Visible Light
Length of Day
Tomorrow will be .
, % of the Moon is Illuminated

Today's Extremes

Country Highs Country Lows

Community

WunderPhotos

Upload Photos

1,815,323 photos uploaded!

WunderBlogs® & News

Nearby

Air Quality

  Air Quality AQ Index Pollutant
Not available.

Snow Depth

Station Depth Elevation

Earthquake Activity

City Distance Mag. Time & Date
Minimum magnitude displayed is 2.5.

Coastal Water Temperatures

Place Temperature

Stations

Nearby Weather Stations

Station Location Temp. Windchill Dew Point Humidity Wind Precip. Elev Updated Type